createdAt,value
2023-03-10T00:00:10.223Z,96067.09
2023-03-10T00:02:36.803Z,96067.09
2023-03-10T00:05:03.400Z,96064.31
2023-03-10T00:07:29.992Z,96061.63
2023-03-10T00:09:56.585Z,96060.03
2023-03-10T00:12:23.200Z,96061.13
2023-03-10T00:14:49.787Z,96061.75
2023-03-10T00:17:16.348Z,96057.88
2023-03-10T00:19:43.063Z,96056.56
2023-03-10T00:22:09.624Z,96067.06
2023-03-10T00:24:36.240Z,96066.25
2023-03-10T00:27:02.864Z,96059.19
2023-03-10T00:29:29.465Z,96061.28
2023-03-10T00:31:56.028Z,96059.00
2023-03-10T00:34:22.663Z,96055.94
2023-03-10T00:36:49.227Z,96056.16
2023-03-10T00:39:15.877Z,96055.16
2023-03-10T00:41:42.510Z,96056.56
2023-03-10T00:44:09.096Z,96048.19
2023-03-10T00:46:35.685Z,96046.56
2023-03-10T00:49:02.339Z,96040.75
2023-03-10T00:51:28.913Z,96032.09
2023-03-10T00:53:55.492Z,96033.84
2023-03-10T00:56:23.959Z,96034.06
2023-03-10T00:58:50.556Z,96016.81
2023-03-10T01:01:17.181Z,96016.97
2023-03-10T01:03:46.620Z,96013.78
2023-03-10T01:06:13.378Z,96008.94
2023-03-10T01:08:39.961Z,96011.56
2023-03-10T01:11:06.520Z,96005.75
2023-03-10T01:13:33.105Z,95993.69
2023-03-10T01:15:59.688Z,95997.69
2023-03-10T01:18:26.282Z,95988.78
2023-03-10T01:20:52.859Z,95985.38
2023-03-10T01:23:19.521Z,95986.44
2023-03-10T01:25:46.189Z,95976.56
2023-03-10T01:28:12.774Z,95975.38
2023-03-10T01:30:40.101Z,95967.31
2023-03-10T01:33:06.754Z,95960.50
2023-03-10T01:35:33.363Z,95950.25
2023-03-10T01:37:59.972Z,95953.06
2023-03-10T01:40:26.599Z,95940.81
2023-03-10T01:42:53.172Z,95941.53
2023-03-10T01:45:19.760Z,95928.13
2023-03-10T01:47:46.355Z,95926.50
2023-03-10T01:50:12.974Z,95934.75
2023-03-10T01:52:39.531Z,95919.06
2023-03-10T01:55:06.160Z,95916.19
2023-03-10T01:57:32.759Z,95915.56
2023-03-10T01:59:59.668Z,95908.38
2023-03-10T02:02:26.305Z,95903.28
2023-03-10T02:04:52.913Z,95894.88
2023-03-10T02:07:19.518Z,95894.06
2023-03-10T02:09:46.105Z,95892.91
2023-03-10T02:12:12.675Z,95888.44
2023-03-10T02:14:39.267Z,95890.06
2023-03-10T02:17:05.839Z,95884.03
2023-03-10T02:19:32.444Z,95886.09
2023-03-10T02:21:58.998Z,95876.03
2023-03-10T02:24:25.553Z,95878.84
2023-03-10T02:26:52.343Z,95874.84
2023-03-10T02:29:18.931Z,95868.38
2023-03-10T02:31:45.574Z,95864.41
2023-03-10T02:34:12.194Z,95864.38
2023-03-10T02:36:38.780Z,95865.09
2023-03-10T02:39:05.384Z,95854.31
2023-03-10T02:41:31.938Z,95850.22
2023-03-10T02:43:58.487Z,95852.91
2023-03-10T02:46:25.087Z,95842.81
2023-03-10T02:48:51.683Z,95841.09
2023-03-10T02:51:18.292Z,95842.81
2023-03-10T02:53:44.879Z,95844.34
2023-03-10T02:56:11.455Z,95842.44
2023-03-10T02:58:38.061Z,95834.09
2023-03-10T03:01:04.696Z,95830.31
2023-03-10T03:03:31.313Z,95837.31
2023-03-10T03:05:57.930Z,95836.91
2023-03-10T03:08:24.555Z,95837.66
2023-03-10T03:10:51.143Z,95839.25
2023-03-10T03:13:17.735Z,95846.63
2023-03-10T03:15:44.374Z,95831.13
2023-03-10T03:18:10.982Z,95824.34
2023-03-10T03:20:37.742Z,95821.31
2023-03-10T03:23:04.297Z,95823.38
2023-03-10T03:25:30.875Z,95818.47
2023-03-10T03:27:57.465Z,95812.91
2023-03-10T03:30:24.027Z,95807.50
2023-03-10T03:32:50.631Z,95807.31
2023-03-10T03:35:17.218Z,95808.66
2023-03-10T03:37:43.789Z,95802.84
2023-03-10T03:40:10.404Z,95812.47
2023-03-10T03:42:36.992Z,95806.50
2023-03-10T03:45:03.591Z,95800.91
2023-03-10T03:47:30.175Z,95794.66
2023-03-10T03:49:56.747Z,95787.00
2023-03-10T03:52:23.349Z,95788.03
2023-03-10T03:54:49.926Z,95787.81
2023-03-10T03:57:16.946Z,95782.75
2023-03-10T03:59:43.894Z,95774.75
2023-03-10T04:02:10.660Z,95773.38
2023-03-10T04:04:37.317Z,95771.16
2023-03-10T04:07:03.888Z,95766.72
2023-03-10T04:09:30.667Z,95766.72
2023-03-10T04:11:57.229Z,95760.13
2023-03-10T04:14:23.850Z,95752.66
2023-03-10T04:16:50.427Z,95751.88
2023-03-10T04:19:17.036Z,95756.31
2023-03-10T04:21:43.647Z,95760.72
2023-03-10T04:24:10.229Z,95753.31
2023-03-10T04:26:36.795Z,95749.09
2023-03-10T04:29:03.411Z,95741.25
2023-03-10T04:31:30.133Z,95740.84
2023-03-10T04:33:56.743Z,95729.97
2023-03-10T04:36:23.400Z,95732.81
2023-03-10T04:38:50.004Z,95739.44
2023-03-10T04:41:16.589Z,95738.44
2023-03-10T04:43:45.096Z,95741.63
2023-03-10T04:46:13.767Z,95741.03
2023-03-10T04:48:42.731Z,95737.19
2023-03-10T04:51:09.319Z,95727.97
2023-03-10T04:53:35.902Z,95725.56
2023-03-10T04:56:02.486Z,95715.91
2023-03-10T04:58:29.083Z,95720.31
2023-03-10T05:01:03.308Z,95722.78
2023-03-10T05:03:30.238Z,95721.19
2023-03-10T05:05:56.868Z,95717.75
2023-03-10T05:08:23.496Z,95713.53
2023-03-10T05:10:50.091Z,95694.84
2023-03-10T05:13:16.687Z,95690.81
2023-03-10T05:15:43.344Z,95695.25
2023-03-10T05:18:10.133Z,95690.59
2023-03-10T05:20:36.893Z,95697.22
2023-03-10T05:23:03.487Z,95690.00
2023-03-10T05:25:30.117Z,95689.00
2023-03-10T05:27:56.876Z,95693.06
2023-03-10T05:30:23.590Z,95688.00
2023-03-10T05:32:50.266Z,95679.63
2023-03-10T05:35:16.954Z,95685.22
2023-03-10T05:37:43.559Z,95673.19
2023-03-10T05:40:10.149Z,95674.78
2023-03-10T05:42:36.744Z,95671.59
2023-03-10T05:45:03.370Z,95664.91
2023-03-10T05:47:29.973Z,95673.97
2023-03-10T05:49:56.566Z,95666.53
2023-03-10T05:52:23.188Z,95661.53
2023-03-10T05:54:49.788Z,95663.16
2023-03-10T05:57:16.349Z,95651.88
2023-03-10T05:59:43.154Z,95651.22
2023-03-10T06:02:09.750Z,95648.97
2023-03-10T06:04:36.376Z,95644.16
2023-03-10T06:07:03.060Z,95640.88
2023-03-10T06:09:29.662Z,95651.31
2023-03-10T06:11:56.245Z,95642.94
2023-03-10T06:14:22.858Z,95638.25
2023-03-10T06:16:49.502Z,95628.69
2023-03-10T06:19:16.156Z,95625.13
2023-03-10T06:21:42.808Z,95617.19
2023-03-10T06:24:09.390Z,95618.53
2023-03-10T06:26:35.986Z,95604.06
2023-03-10T06:29:02.746Z,95596.81
2023-03-10T06:31:29.432Z,95599.69
2023-03-10T06:33:56.037Z,95601.25
2023-03-10T06:36:22.806Z,95594.63
2023-03-10T06:38:49.392Z,95587.28
2023-03-10T06:41:16.072Z,95583.72
2023-03-10T06:43:42.694Z,95594.94
2023-03-10T06:46:09.404Z,95590.22
2023-03-10T06:48:36.082Z,95572.38
2023-03-10T06:51:02.691Z,95589.63
2023-03-10T06:53:29.327Z,95587.56
2023-03-10T06:55:56.034Z,95576.97
2023-03-10T06:58:22.629Z,95576.09
2023-03-10T07:00:49.244Z,95577.44
2023-03-10T07:03:16.055Z,95571.50
2023-03-10T07:05:42.691Z,95574.16
2023-03-10T07:08:09.270Z,95568.34
2023-03-10T07:10:35.864Z,95570.75
2023-03-10T07:13:02.558Z,95572.91
2023-03-10T07:15:29.165Z,95569.47
2023-03-10T07:17:55.785Z,95560.50
2023-03-10T07:20:22.460Z,95567.38
2023-03-10T07:22:49.034Z,95561.78
2023-03-10T07:25:15.616Z,95560.88
2023-03-10T07:27:42.200Z,95558.81
2023-03-10T07:30:08.804Z,95562.69
2023-03-10T07:32:35.470Z,95554.91
2023-03-10T07:35:02.168Z,95540.06
2023-03-10T07:37:28.747Z,95537.69
2023-03-10T07:39:55.392Z,95534.28
2023-03-10T07:42:21.985Z,95532.28
2023-03-10T07:44:48.651Z,95530.16
2023-03-10T07:47:15.243Z,95519.91
2023-03-10T07:49:42.049Z,95525.47
2023-03-10T07:52:08.653Z,95516.09
2023-03-10T07:54:35.355Z,95523.66
2023-03-10T07:57:02.039Z,95520.59
2023-03-10T07:59:28.716Z,95504.13
2023-03-10T08:01:55.278Z,95506.25
2023-03-10T08:04:21.977Z,95495.97
2023-03-10T08:06:48.639Z,95490.78
2023-03-10T08:09:15.210Z,95481.94
2023-03-10T08:11:41.799Z,95483.94
2023-03-10T08:14:08.607Z,95483.34
2023-03-10T08:16:35.653Z,95475.09
2023-03-10T08:19:02.292Z,95468.31
2023-03-10T08:21:28.869Z,95466.59
2023-03-10T08:23:55.628Z,95460.13
2023-03-10T08:26:22.195Z,95452.09
2023-03-10T08:28:48.774Z,95453.44
2023-03-10T08:31:15.400Z,95449.25
2023-03-10T08:33:42.408Z,95449.97
2023-03-10T08:36:09.147Z,95442.69
2023-03-10T08:38:36.485Z,95434.47
2023-03-10T08:41:03.207Z,95450.00
2023-03-10T08:43:29.816Z,95451.38
2023-03-10T08:45:56.468Z,95440.88
2023-03-10T08:48:23.053Z,95443.81
2023-03-10T08:50:49.871Z,95432.72
2023-03-10T08:53:16.488Z,95426.81
2023-03-10T08:55:43.126Z,95430.47
2023-03-10T08:58:09.680Z,95431.00
2023-03-10T09:00:36.272Z,95425.84
2023-03-10T09:03:02.966Z,95421.44
2023-03-10T09:05:29.576Z,95416.16
2023-03-10T09:07:56.147Z,95416.34
2023-03-10T09:10:22.731Z,95421.75
2023-03-10T09:12:49.295Z,95408.41
2023-03-10T09:15:15.912Z,95411.66
2023-03-10T09:17:42.473Z,95402.28
2023-03-10T09:20:09.086Z,95380.97
2023-03-10T09:22:35.671Z,95384.06
2023-03-10T09:25:02.283Z,95380.31
2023-03-10T09:27:28.841Z,95384.56
2023-03-10T09:29:55.749Z,95394.78
2023-03-10T09:32:23.059Z,95386.84
2023-03-10T09:34:51.745Z,95388.06
2023-03-10T09:37:18.437Z,95377.72
2023-03-10T09:39:45.044Z,95392.94
2023-03-10T09:42:11.984Z,95385.25
2023-03-10T09:44:39.808Z,95378.22
2023-03-10T09:47:06.396Z,95376.75
2023-03-10T09:49:32.984Z,95371.66
2023-03-10T09:51:59.615Z,95380.28
2023-03-10T09:54:26.200Z,95376.19
2023-03-10T09:56:55.459Z,95377.00
2023-03-10T09:59:22.196Z,95380.97
2023-03-10T10:01:48.826Z,95372.28
2023-03-10T10:04:15.533Z,95369.03
2023-03-10T10:06:42.201Z,95370.50
2023-03-10T10:09:08.772Z,95369.91
2023-03-10T10:11:35.391Z,95361.25
2023-03-10T10:14:01.988Z,95357.94
2023-03-10T10:16:34.494Z,95360.63
2023-03-10T10:19:01.666Z,95349.50
2023-03-10T10:21:33.608Z,95350.09
2023-03-10T10:24:07.035Z,95348.22
2023-03-10T10:26:33.602Z,95340.84
2023-03-10T10:29:00.229Z,95333.66
2023-03-10T10:31:26.918Z,95331.03
2023-03-10T10:33:53.570Z,95337.03
2023-03-10T10:36:20.181Z,95335.25
2023-03-10T10:38:46.788Z,95328.63
2023-03-10T10:41:13.388Z,95311.84
2023-03-10T10:43:39.996Z,95317.81
2023-03-10T10:46:06.686Z,95317.59
2023-03-10T10:48:33.342Z,95315.41
2023-03-10T10:51:00.114Z,95321.66
2023-03-10T10:53:28.788Z,95307.53
2023-03-10T10:55:55.437Z,95305.78
2023-03-10T10:58:21.996Z,95315.25
2023-03-10T11:00:48.592Z,95310.16
2023-03-10T11:03:15.163Z,95297.50
2023-03-10T11:05:41.787Z,95302.72
2023-03-10T11:08:08.387Z,95304.31
2023-03-10T11:10:34.972Z,95298.97
2023-03-10T11:13:01.569Z,95294.91
2023-03-10T11:15:28.284Z,95286.34
2023-03-10T11:17:55.055Z,95283.78
2023-03-10T11:20:21.647Z,95278.69
2023-03-10T11:22:48.233Z,95272.22
2023-03-10T11:25:14.837Z,95262.69
2023-03-10T11:27:41.409Z,95275.44
2023-03-10T11:30:08.038Z,95269.44
2023-03-10T11:32:34.670Z,95264.75
2023-03-10T11:35:01.273Z,95263.63
2023-03-10T11:37:27.847Z,95258.38
2023-03-10T11:39:54.450Z,95256.22
2023-03-10T11:42:21.068Z,95258.75
2023-03-10T11:44:47.646Z,95247.94
2023-03-10T11:47:14.224Z,95245.66
2023-03-10T11:49:40.859Z,95244.13
2023-03-10T11:52:07.447Z,95228.72
2023-03-10T11:54:34.195Z,95232.09
2023-03-10T11:57:00.796Z,95227.41
2023-03-10T11:59:27.375Z,95232.59
2023-03-10T12:01:54.076Z,95227.59
2023-03-10T12:04:20.677Z,95219.00
2023-03-10T12:06:47.309Z,95212.34
2023-03-10T12:09:13.900Z,95215.91
2023-03-10T12:11:40.503Z,95208.31
2023-03-10T12:14:07.112Z,95200.63
2023-03-10T12:16:33.769Z,95195.72
2023-03-10T12:19:00.347Z,95198.53
2023-03-10T12:21:27.343Z,95193.00
2023-03-10T12:23:54.006Z,95195.56
2023-03-10T12:26:20.655Z,95185.16
2023-03-10T12:28:47.221Z,95189.59
2023-03-10T12:31:13.804Z,95184.53
2023-03-10T12:33:40.411Z,95180.34
2023-03-10T12:36:07.049Z,95180.16
2023-03-10T12:38:33.638Z,95169.78
2023-03-10T12:41:00.225Z,95171.59
2023-03-10T12:43:26.811Z,95161.88
2023-03-10T12:45:53.406Z,95148.94
2023-03-10T12:48:20.068Z,95144.78
2023-03-10T12:50:46.855Z,95136.53
2023-03-10T12:53:13.426Z,95141.13
2023-03-10T12:55:40.029Z,95142.84
2023-03-10T12:58:06.651Z,95151.16
2023-03-10T13:00:33.258Z,95142.78
2023-03-10T13:02:59.906Z,95131.25
2023-03-10T13:05:26.494Z,95125.13
2023-03-10T13:07:53.086Z,95128.44
2023-03-10T13:10:19.728Z,95132.56
2023-03-10T13:12:46.485Z,95131.56
2023-03-10T13:15:13.101Z,95134.63
2023-03-10T13:17:39.687Z,95135.69
2023-03-10T13:20:06.308Z,95128.13
2023-03-10T13:22:32.943Z,95131.44
2023-03-10T13:24:59.561Z,95129.41
2023-03-10T13:27:26.209Z,95130.63
2023-03-10T13:29:52.851Z,95130.91
2023-03-10T13:32:19.485Z,95135.56
2023-03-10T13:34:46.126Z,95138.47
2023-03-10T13:37:12.742Z,95136.56
2023-03-10T13:39:39.331Z,95128.56
2023-03-10T13:42:05.928Z,95125.53
2023-03-10T13:44:32.540Z,95123.69
2023-03-10T13:46:59.151Z,95117.47
2023-03-10T13:49:25.755Z,95116.66
2023-03-10T13:51:52.379Z,95122.00
2023-03-10T13:54:19.279Z,95118.31
2023-03-10T13:56:45.897Z,95111.75
2023-03-10T13:59:12.520Z,95110.19
2023-03-10T14:01:39.172Z,95113.16
2023-03-10T14:04:05.878Z,95122.16
2023-03-10T14:06:32.606Z,95124.91
2023-03-10T14:08:59.208Z,95116.88
2023-03-10T14:11:25.842Z,95120.00
2023-03-10T14:13:52.446Z,95122.97
2023-03-10T14:16:19.120Z,95124.66
2023-03-10T14:18:45.680Z,95133.97
2023-03-10T14:21:12.277Z,95131.97
2023-03-10T14:23:38.918Z,95144.25
2023-03-10T14:26:05.470Z,95144.00
2023-03-10T14:28:32.082Z,95181.38
2023-03-10T14:30:58.848Z,95195.16
2023-03-10T14:33:25.520Z,95204.63
2023-03-10T14:35:52.121Z,95195.97
2023-03-10T14:38:18.832Z,95200.44
2023-03-10T14:40:45.404Z,95216.97
2023-03-10T14:43:11.990Z,95227.56
2023-03-10T14:45:41.082Z,95245.41
2023-03-10T14:48:08.158Z,95247.09
2023-03-10T14:50:34.840Z,95269.75
2023-03-10T14:53:02.359Z,95255.84
2023-03-10T14:55:28.917Z,95275.22
2023-03-10T14:57:55.521Z,95254.81
2023-03-10T15:00:22.143Z,95255.81
2023-03-10T15:02:48.742Z,95258.53
2023-03-10T15:05:15.320Z,95258.53
2023-03-10T15:07:41.895Z,95289.47
2023-03-10T15:10:11.636Z,95283.16
2023-03-10T15:12:38.358Z,95273.56
2023-03-10T15:15:04.934Z,95273.31
2023-03-10T15:17:31.568Z,95279.59
2023-03-10T15:19:58.171Z,95272.13
2023-03-10T15:22:24.770Z,95275.91
2023-03-10T15:24:51.442Z,95274.03
2023-03-10T15:27:18.002Z,95283.25
2023-03-10T15:29:44.583Z,95272.63
2023-03-10T15:32:11.202Z,95268.66
2023-03-10T15:34:37.870Z,95270.31
2023-03-10T15:37:04.458Z,95260.63
2023-03-10T15:39:32.772Z,95259.56
2023-03-10T15:42:00.434Z,95251.63
2023-03-10T15:44:27.064Z,95252.59
2023-03-10T15:46:53.700Z,95241.16
2023-03-10T15:49:20.307Z,95246.63
2023-03-10T15:51:46.923Z,95241.47
2023-03-10T15:54:13.492Z,95241.78
2023-03-10T15:56:40.157Z,95240.72
2023-03-10T15:59:06.897Z,95225.81
2023-03-10T16:01:33.541Z,95217.97
2023-03-10T16:04:00.196Z,95219.72
2023-03-10T16:06:26.803Z,95216.59
2023-03-10T16:08:53.389Z,95207.88
2023-03-10T16:11:19.995Z,95206.38
2023-03-10T16:13:46.576Z,95204.31
2023-03-10T16:16:13.248Z,95206.06
2023-03-10T16:18:39.823Z,95204.63
2023-03-10T16:21:06.428Z,95211.41
2023-03-10T16:23:32.986Z,95206.44
2023-03-10T16:25:59.633Z,95196.13
2023-03-10T16:28:26.332Z,95201.34
2023-03-10T16:30:52.900Z,95203.81
2023-03-10T16:33:19.512Z,95214.78
2023-03-10T16:35:46.124Z,95209.50
2023-03-10T16:38:12.812Z,95212.44
2023-03-10T16:40:39.402Z,95218.22
2023-03-10T16:43:05.990Z,95223.94
2023-03-10T16:45:32.669Z,95222.16
2023-03-10T16:47:59.320Z,95232.75
2023-03-10T16:50:25.926Z,95232.47
2023-03-10T16:52:52.528Z,95234.63
2023-03-10T16:55:19.130Z,95229.38
2023-03-10T16:57:45.916Z,95245.31
2023-03-10T17:00:12.520Z,95242.69
2023-03-10T17:02:39.123Z,95239.75
2023-03-10T17:05:05.685Z,95239.28
2023-03-10T17:07:33.627Z,95236.88
2023-03-10T17:10:01.357Z,95234.22
2023-03-10T17:12:27.968Z,95238.47
2023-03-10T17:14:54.612Z,95246.66
2023-03-10T17:17:21.236Z,95251.09
2023-03-10T17:19:47.830Z,95261.91
2023-03-10T17:22:14.504Z,95266.66
2023-03-10T17:24:41.171Z,95276.97
2023-03-10T17:27:07.833Z,95278.00
2023-03-10T17:29:34.435Z,95277.97
2023-03-10T17:32:01.246Z,95285.41
2023-03-10T17:34:27.955Z,95301.19
2023-03-10T17:36:54.535Z,95291.69
2023-03-10T17:39:21.194Z,95301.94
2023-03-10T17:41:47.809Z,95310.16
2023-03-10T17:44:15.415Z,95313.78
2023-03-10T17:46:42.084Z,95317.34
2023-03-10T17:49:08.665Z,95318.88
2023-03-10T17:51:35.300Z,95318.78
2023-03-10T17:54:01.908Z,95320.63
2023-03-10T17:56:28.573Z,95325.97
2023-03-10T17:58:55.156Z,95329.09
2023-03-10T18:01:21.790Z,95331.13
2023-03-10T18:03:48.702Z,95327.53
2023-03-10T18:06:15.382Z,95321.19
2023-03-10T18:08:41.944Z,95319.78
2023-03-10T18:11:08.594Z,95315.91
2023-03-10T18:13:35.219Z,95321.34
2023-03-10T18:16:01.817Z,95320.19
2023-03-10T18:18:28.416Z,95308.06
2023-03-10T18:20:55.012Z,95303.59
2023-03-10T18:23:21.600Z,95302.97
2023-03-10T18:25:48.192Z,95293.47
2023-03-10T18:28:14.768Z,95299.78
2023-03-10T18:30:41.432Z,95312.59
2023-03-10T18:33:08.102Z,95300.03
2023-03-10T18:35:34.666Z,95322.69
2023-03-10T18:38:01.409Z,95323.03
2023-03-10T18:40:27.979Z,95331.25
2023-03-10T18:42:54.627Z,95338.72
2023-03-10T18:45:21.186Z,95341.75
2023-03-10T18:47:47.779Z,95329.78
2023-03-10T18:50:14.330Z,95332.81
2023-03-10T18:52:40.912Z,95335.66
2023-03-10T18:55:07.831Z,95324.69
2023-03-10T18:57:34.469Z,95332.31
2023-03-10T19:00:01.248Z,95346.91
2023-03-10T19:02:27.882Z,95336.25
2023-03-10T19:04:54.485Z,95342.13
2023-03-10T19:07:21.066Z,95346.66
2023-03-10T19:09:47.891Z,95349.09
2023-03-10T19:12:14.479Z,95355.72
2023-03-10T19:14:41.230Z,95351.34
2023-03-10T19:17:07.816Z,95352.59
2023-03-10T19:19:34.431Z,95349.63
2023-03-10T19:22:01.031Z,95354.19
2023-03-10T19:24:27.593Z,95347.66
2023-03-10T19:26:54.182Z,95357.44
2023-03-10T19:29:20.783Z,95361.34
2023-03-10T19:31:47.443Z,95359.59
2023-03-10T19:34:14.014Z,95342.28
2023-03-10T19:36:40.615Z,95344.06
2023-03-10T19:39:07.202Z,95341.38
2023-03-10T19:41:33.824Z,95342.53
2023-03-10T19:44:00.426Z,95341.06
2023-03-10T19:46:27.141Z,95352.41
2023-03-10T19:48:54.317Z,95345.91
2023-03-10T19:51:20.924Z,95354.19
2023-03-10T19:53:47.490Z,95351.72
2023-03-10T19:56:14.105Z,95349.56
2023-03-10T19:58:40.674Z,95346.34
2023-03-10T20:01:08.199Z,95352.66
2023-03-10T20:03:34.940Z,95350.53
2023-03-10T20:06:01.550Z,95351.53
2023-03-10T20:08:28.134Z,95348.38
2023-03-10T20:10:54.893Z,95341.41
2023-03-10T20:13:21.496Z,95346.78
2023-03-10T20:15:48.473Z,95358.19
2023-03-10T20:18:15.426Z,95351.81
2023-03-10T20:20:42.009Z,95353.97
2023-03-10T20:23:08.657Z,95357.84
2023-03-10T20:25:35.368Z,95356.28
2023-03-10T20:28:01.941Z,95354.91
2023-03-10T20:30:28.529Z,95356.47
2023-03-10T20:32:55.107Z,95362.63
2023-03-10T20:35:22.726Z,95368.88
2023-03-10T20:37:50.461Z,95362.44
2023-03-10T20:40:17.053Z,95371.38
2023-03-10T20:42:43.694Z,95365.31
2023-03-10T20:45:10.270Z,95359.16
2023-03-10T20:47:36.869Z,95360.44
2023-03-10T20:50:03.517Z,95367.38
2023-03-10T20:52:30.154Z,95365.63
2023-03-10T20:54:56.716Z,95361.00
2023-03-10T20:57:23.464Z,95366.44
2023-03-10T20:59:50.033Z,95368.41
2023-03-10T21:02:16.594Z,95376.69
2023-03-10T21:04:43.379Z,95390.03
2023-03-10T21:07:09.974Z,95382.59
2023-03-10T21:09:36.602Z,95388.19
2023-03-10T21:12:03.199Z,95386.84
2023-03-10T21:14:29.769Z,95386.03
2023-03-10T21:16:56.377Z,95399.88
2023-03-10T21:19:23.019Z,95398.69
2023-03-10T21:21:49.609Z,95395.97
2023-03-10T21:24:16.190Z,95405.97
2023-03-10T21:26:42.781Z,95412.00
2023-03-10T21:29:09.356Z,95408.81
2023-03-10T21:31:35.958Z,95413.81
2023-03-10T21:34:02.525Z,95408.38
2023-03-10T21:36:29.119Z,95405.56
2023-03-10T21:38:55.697Z,95401.97
2023-03-10T21:41:22.264Z,95401.81
2023-03-10T21:43:48.861Z,95396.47
2023-03-10T21:46:15.624Z,95408.25
2023-03-10T21:48:43.255Z,95419.56
2023-03-10T21:51:09.956Z,95422.41
2023-03-10T21:53:36.593Z,95416.06
2023-03-10T21:56:03.171Z,95421.69
2023-03-10T21:58:29.914Z,95408.88
2023-03-10T22:00:56.548Z,95407.41
2023-03-10T22:03:23.164Z,95397.34
2023-03-10T22:05:49.768Z,95407.34
2023-03-10T22:08:16.347Z,95397.88
2023-03-10T22:10:43.010Z,95399.25
2023-03-10T22:13:09.635Z,95404.44
2023-03-10T22:15:36.226Z,95409.38
2023-03-10T22:18:02.780Z,95420.69
2023-03-10T22:20:29.362Z,95419.50
2023-03-10T22:22:55.927Z,95432.28
2023-03-10T22:25:22.520Z,95432.75
2023-03-10T22:27:49.405Z,95436.72
2023-03-10T22:30:16.006Z,95438.47
2023-03-10T22:32:42.648Z,95438.81
2023-03-10T22:35:09.229Z,95439.00
2023-03-10T22:37:35.819Z,95436.84
2023-03-10T22:40:02.433Z,95441.06
2023-03-10T22:42:29.045Z,95445.00
2023-03-10T22:44:55.638Z,95431.78
2023-03-10T22:47:22.236Z,95436.63
2023-03-10T22:49:48.809Z,95446.69
2023-03-10T22:52:15.411Z,95445.41
2023-03-10T22:54:41.994Z,95436.56
2023-03-10T22:57:08.638Z,95441.50
2023-03-10T22:59:35.246Z,95441.41
2023-03-10T23:02:01.934Z,95441.50
2023-03-10T23:04:28.600Z,95442.78
2023-03-10T23:06:55.197Z,95433.03
2023-03-10T23:09:21.927Z,95423.91
2023-03-10T23:11:48.860Z,95411.59
2023-03-10T23:14:15.591Z,95406.28
2023-03-10T23:16:42.224Z,95380.19
2023-03-10T23:19:08.820Z,95398.03
2023-03-10T23:21:35.488Z,95393.44
2023-03-10T23:24:02.104Z,95394.50
2023-03-10T23:26:28.678Z,95403.81
2023-03-10T23:28:55.272Z,95410.56
2023-03-10T23:31:21.869Z,95416.00
2023-03-10T23:33:48.566Z,95413.28
2023-03-10T23:36:15.236Z,95410.88
2023-03-10T23:38:41.812Z,95418.69
2023-03-10T23:41:08.548Z,95409.88
2023-03-10T23:43:35.106Z,95404.59
2023-03-10T23:46:01.747Z,95410.19
2023-03-10T23:48:28.403Z,95410.97
2023-03-10T23:50:54.989Z,95398.00
2023-03-10T23:53:21.552Z,95401.72
2023-03-10T23:55:48.187Z,95400.31
2023-03-10T23:58:14.857Z,95410.66
